FW5744 Weather Reports


time (UTC)temp
F
wind
direction
speed
knots
gust
knots
rain 1hr
in
rain 24hr
in
rain mn
in
humidity
%
barometer
mb
20260505164531 80 219 8.7 17.4 0.00 0.00 0.00 43 1009.8
20260505164018 80 197 7.8 17.4 0.00 0.00 0.00 45 1009.8
20260505163517 80 205 8.7 13.9 0.00 0.00 0.00 44 1009.9
20260505163022 80 210 5.2 15.6 0.00 0.00 0.00 45 1009.9
20260505162515 80 235 9.6 19.1 0.00 0.00 0.00 45 1010.1
20260505162016 80 215 8.7 19.1 0.00 0.00 0.00 45 1010.1
20260505161515 80 359 7.8 12.2 0.00 0.00 0.00 44 1010.1
20260505161016 80 359 7.0 13.0 0.00 0.00 0.00 46 1010.2
20260505160514 80 359 5.2 11.3 0.00 0.00 0.00 45 1010.2
20260505153006 78 245 6.1 10.4 0.00 0.00 0.00 46 1010.5
20260505152505 78 236 6.1 13.9 0.00 0.00 0.00 48 1010.4
20260505152008 78 359 6.1 10.4 0.00 0.00 0.00 47 1010.4
20260505151504 77 115 3.5 7.8 0.00 0.00 0.00 50 1010.3
20260505151002 77 359 2.6 9.6 0.00 0.00 0.00 49 1010.2
20260505150601 76 359 4.3 13.0 0.00 0.00 0.00 50 1010.4
20260505150116 76 276 7.8 13.9 0.00 0.00 0.00 49 1010.7
20260505140545 71 359 6.1 14.8 0.00 0.00 0.00 56 1011.0
20260505125031 68 239 6.1 13.0 0.00 0.00 0.00 61 1011.0
20260505124531 67 226 6.1 11.3 0.00 0.00 0.00 62 1011.1
20260505124030 67 219 7.8 11.3 0.00 0.00 0.00 62 1011.0
20260505123529 67 224 4.3 9.6 0.00 0.00 0.00 63 1011.0
20260505123045 67 252 4.3 11.3 0.00 0.00 0.00 63 1011.1
20260505122526 66 359 6.1 11.3 0.00 0.00 0.00 62 1011.0
20260505122026 66 250 4.3 12.2 0.00 0.00 0.00 63 1010.8
20260505121533 66 255 6.1 13.9 0.00 0.00 0.00 63 1010.9
20260505121026 66 243 7.0 13.9 0.00 0.00 0.00 63 1011.0
20260505120524 66 257 4.3 10.4 0.00 0.00 0.00 63 1010.9
20260505120036 66 278 3.5 10.4 0.00 0.00 0.00 64 1010.9
20260505115522 65 263 4.3 8.7 0.00 0.00 0.00 64 1010.9
20260505115022 65 226 5.2 9.6 0.00 0.00 0.00 65 1010.8
20260505114525 65 243 4.3 9.6 0.00 0.00 0.00 66 1010.8
20260505114020 64 198 6.1 10.4 0.00 0.00 0.00 66 1011.0
20260505113519 64 297 3.5 10.4 0.00 0.00 0.00 66 1010.9
20260505113019 64 359 2.6 10.4 0.00 0.00 0.00 67 1010.9
20260505112517 63 235 3.5 13.0 0.00 0.00 0.00 67 1010.9
20260505112016 63 240 7.8 13.0 0.00 0.00 0.00 67 1011.0
20260505111519 63 359 4.3 12.2 0.00 0.00 0.00 68 1010.9
20260505111014 63 243 6.1 10.4 0.00 0.00 0.00 68 1010.9
20260505110515 62 272 3.5 7.0 0.00 0.00 0.00 70 1010.9
20260505102004 59 359 3.5 5.2 0.00 0.00 0.00 74 1010.7
20260505101507 59 230 2.6 6.1 0.00 0.00 0.00 75 1010.8
20260505101004 59 242 3.5 7.0 0.00 0.00 0.00 75 1010.9
20260505100503 59 301 1.7 7.0 0.00 0.00 0.00 75 1010.6
20260505100002 59 283 2.6 7.8 0.00 0.00 0.00 75 1010.5
20260505095502 58 272 1.7 7.8 0.00 0.00 0.00 75 1010.3
20260505095001 58 267 4.3 7.8 0.00 0.00 0.00 75 1010.1
20260505094501 59 359 2.6 7.8 0.00 0.00 0.00 75 1009.9
20260505094001 59 359 2.6 7.8 0.00 0.00 0.00 75 1009.9
20260505093502 59 237 2.6 9.6 0.00 0.00 0.00 75 1009.8
20260505093101 59 359 3.5 9.6 0.00 0.00 0.00 75 1009.9
20260505092604 58 222 3.5 7.8 0.00 0.00 0.00 75 1009.8
20260505092059 59 214 2.6 7.8 0.00 0.00 0.00 75 1009.7
20260505091559 59 235 3.5 9.6 0.00 0.00 0.00 75 1009.6
20260505091057 58 233 4.3 9.6 0.00 0.00 0.00 75 1009.7
20260505090557 58 296 1.7 8.7 0.00 0.00 0.00 76 1009.7
20260505090109 58 359 1.7 7.8 0.00 0.00 0.00 76 1009.8
20260505085556 58 359 2.6 7.8 0.00 0.00 0.00 76 1009.8
20260505085056 57 233 2.6 6.1 0.00 0.00 0.00 76 1009.8
20260505084557 57 235 1.7 7.0 0.00 0.00 0.00 75 1009.8
20260505084055 57 216 3.5 7.0 0.00 0.00 0.00 75 1009.9
20260505083554 57 228 2.6 5.2 0.00 0.00 0.00 75 1009.9
20260505083107 57 227 1.7 4.3 0.00 0.00 0.00 74 1009.9
20260505082553 58 224 1.7 4.3 0.00 0.00 0.00 74 1009.9
20260505082052 58 359 1.7 4.3 0.00 0.00 0.00 74 1010.1
20260505081553 58 359 1.7 4.3 0.00 0.00 0.00 73 1010.0
20260505081051 58 247 2.6 4.3 0.00 0.00 0.00 73 1010.0
20260505080550 58 233 2.6 4.3 0.00 0.00 0.00 73 1010.0
20260505080055 58 233 1.7 5.2 0.00 0.00 0.00 72 1010.0
20260505075549 58 245 3.5 7.0 0.00 0.00 0.00 72 1010.0
20260505075049 59 237 1.7 7.0 0.00 0.00 0.00 72 1010.0
20260505074550 58 234 3.5 6.1 0.00 0.00 0.00 72 1010.0
20260505074053 58 255 2.6 5.2 0.00 0.00 0.00 72 1009.9
20260505073551 58 223 2.6 4.3 0.00 0.00 0.00 71 1009.9
20260505073056 58 240 1.7 4.3 0.00 0.00 0.00 71 1009.9
20260505072549 59 239 1.7 4.3 0.00 0.00 0.00 71 1009.9
20260505072046 59 223 1.7 5.2 0.00 0.00 0.00 71 1009.8
20260505071546 59 256 2.6 5.2 0.00 0.00 0.00 70 1009.9
20260505071046 59 359 2.6 7.8 0.00 0.00 0.00 70 1009.9
20260505070549 59 224 3.5 8.7 0.00 0.00 0.00 70 1009.9
20260505070052 59 228 2.6 8.7 0.00 0.00 0.00 70 1009.8
20260505065545 59 237 3.5 6.1 0.00 0.00 0.00 70 1009.8
20260505065045 59 219 2.6 6.1 0.00 0.00 0.00 70 1009.7
20260505064543 59 359 1.7 5.2 0.00 0.00 0.00 70 1009.9
20260505064047 59 264 2.6 5.2 0.00 0.00 0.00 70 1009.9
20260505063544 59 261 1.7 5.2 0.00 0.00 0.00 69 1009.9
20260505063043 59 226 2.6 5.2 0.00 0.00 0.00 69 1009.8
20260505062542 59 218 2.6 6.1 0.00 0.00 0.00 69 1009.9
20260505062042 59 231 1.7 7.0 0.00 0.00 0.00 69 1009.9
20260505061540 58 241 3.5 7.0 0.00 0.00 0.00 70 1010.0
20260505061040 58 272 0.9 4.3 0.00 0.00 0.00 69 1010.1
20260505060540 58 270 1.7 4.3 0.00 0.00 0.00 69 1010.0
20260505060038 59 359 0.9 3.5 0.00 0.00 0.00 69 1010.0
20260505055539 59 249 0.9 3.5 0.00 0.00 0.00 68 1010.0
20260505055040 59 233 1.7 4.3 0.00 0.00 0.00 68 1009.9
20260505054537 59 223 1.7 5.2 0.00 0.00 0.00 68 1009.9
20260505054036 59 359 2.6 5.2 0.00 0.00 0.00 68 1009.9
20260505053541 59 222 2.6 4.3 0.00 0.00 0.00 68 1009.9
20260505053036 59 242 1.7 6.1 0.00 0.00 0.00 68 1010.1
20260505052535 59 235 2.6 6.1 0.00 0.00 0.00 68 1010.0
20260505052034 59 359 1.7 3.5 0.00 0.00 0.00 68 1010.1
20260505051537 59 222 1.7 3.5 0.00 0.00 0.00 68 1010.2
20260505051033 59 228 0.9 3.5 0.00 0.00 0.00 68 1010.3
20260505050535 59 238 0.9 4.3 0.00 0.00 0.00 68 1010.3
20260505050104 59 208 0.9 4.3 0.00 0.00 0.00 67 1010.3
20260505041545 60 213 3.5 7.8 0.00 0.00 0.00 65 1010.4
20260505041025 60 226 2.6 7.8 0.00 0.00 0.00 65 1010.5
20260505040525 60 187 2.6 6.1 0.00 0.00 0.00 65 1010.5
20260505040024 60 213 2.6 6.1 0.00 0.00 0.00 65 1010.5
20260505035524 60 207 2.6 6.1 0.00 0.00 0.00 64 1010.5
20260505035024 60 205 2.6 7.0 0.00 0.00 0.00 64 1010.6
20260505034524 60 214 3.5 7.0 0.00 0.00 0.00 64 1010.5
20260505034026 60 177 2.6 6.1 0.00 0.00 0.00 64 1010.4
20260505033523 61 181 2.6 7.0 0.00 0.00 0.00 63 1010.5
20260505033024 61 188 4.3 7.0 0.00 0.00 0.00 63 1010.4
20260505032526 61 225 2.6 7.0 0.00 0.00 0.00 63 1010.5
20260505032022 61 198 1.7 7.0 0.00 0.00 0.00 62 1010.6
20260505031522 61 200 2.6 6.1 0.00 0.00 0.00 62 1010.6
20260505031022 61 171 2.6 6.1 0.00 0.00 0.00 61 1010.6
20260505030523 61 199 2.6 7.0 0.00 0.00 0.00 61 1010.7
20260505030024 61 201 3.5 7.0 0.00 0.00 0.00 61 1010.7
20260505025522 61 359 3.5 7.8 0.00 0.00 0.00 60 1010.8
20260505025022 61 212 2.6 7.8 0.00 0.00 0.00 60 1010.7
20260505024525 62 190 2.6 7.0 0.00 0.00 0.00 59 1010.7
20260505024021 62 198 1.7 7.0 0.00 0.00 0.00 59 1010.8
20260505023522 62 168 3.5 6.1 0.00 0.00 0.00 59 1010.8
20260505023023 62 234 2.6 6.1 0.00 0.00 0.00 58 1010.9
20260505022523 62 143 2.6 5.2 0.00 0.00 0.00 58 1010.9
20260505022021 63 210 1.7 5.2 0.00 0.00 0.00 57 1010.9
20260505021525 63 207 1.7 6.1 0.00 0.00 0.00 57 1010.9
20260505021020 63 194 2.6 7.0 0.00 0.00 0.00 57 1010.9
20260505020520 63 214 2.6 7.8 0.00 0.00 0.00 57 1011.0
20260505020021 63 230 2.6 7.8 0.00 0.00 0.00 56 1011.0
20260505015520 63 227 2.6 7.0 0.00 0.00 0.00 56 1010.9
20260505015020 63 217 2.6 7.0 0.00 0.00 0.00 56 1010.7
20260505014519 64 147 1.7 7.8 0.00 0.00 0.00 55 1010.6
20260505014019 64 178 3.5 7.8 0.00 0.00 0.00 54 1010.5
20260505013522 64 207 3.5 10.4 0.00 0.00 0.00 54 1010.5
20260505013021 64 359 4.3 10.4 0.00 0.00 0.00 54 1010.6
20260505012518 64 188 4.3 8.7 0.00 0.00 0.00 53 1010.4
20260505012018 65 189 2.6 9.6 0.00 0.00 0.00 53 1010.3
20260505011527 65 184 4.3 8.7 0.00 0.00 0.00 52 1010.3
20260505011021 65 216 3.5 8.7 0.00 0.00 0.00 50 1010.3
20260505010518 66 211 3.5 7.0 0.00 0.00 0.00 48 1010.2
20260505010017 66 222 3.5 7.0 0.00 0.00 0.00 46 1010.2
20260505005518 67 180 2.6 4.3 0.00 0.00 0.00 45 1010.1
20260505005017 67 183 1.7 4.3 0.00 0.00 0.00 43 1010.0
20260505004530 68 220 0.9 4.3 0.00 0.00 0.00 42 1010.0
20260505004016 68 218 2.6 7.0 0.00 0.00 0.00 42 1010.0
20260505003516 68 216 2.6 8.7 0.00 0.00 0.00 42 1010.0
20260505003017 68 254 3.5 9.6 0.00 0.00 0.00 41 1009.9
20260505002516 68 209 4.3 9.6 0.00 0.00 0.00 41 1009.9
20260505002016 69 228 4.3 8.7 0.00 0.00 0.00 41 1009.8
20260505001516 69 239 3.5 13.0 0.00 0.00 0.00 40 1009.6
20260505001016 69 215 6.1 13.0 0.00 0.00 0.00 40 1009.4
20260505000516 69 252 7.0 12.2 0.00 0.00 0.00 40 1009.4
20260505000026 69 219 4.3 10.4 0.00 0.00 0.00 39 1009.4
20260504235516 69 359 7.0 10.4 0.00 0.00 0.00 39 1009.3
20260504235015 70 221 6.1 13.9 0.00 0.00 0.00 39 1009.3
20260504234516 70 275 7.8 13.9 0.00 0.00 0.00 39 1009.3
20260504234015 70 247 6.1 13.9 0.00 0.00 0.00 38 1009.2
20260504233515 70 359 7.0 11.3 0.00 0.00 0.00 38 1009.2
20260504233015 71 224 4.3 13.9 0.00 0.00 0.00 38 1009.0
20260504232514 71 238 6.1 13.9 0.00 0.00 0.00 37 1009.0
20260504232013 71 216 8.7 13.0 0.00 0.00 0.00 37 1008.9
20260504231514 71 224 7.8 20.0 0.00 0.00 0.00 37 1008.8
20260504231014 71 264 6.1 20.0 0.00 0.00 0.00 37 1008.9
20260504230513 71 224 8.7 13.9 0.00 0.00 0.00 36 1008.7
20260504230017 72 241 7.0 13.0 0.00 0.00 0.00 36 1008.7
20260504225513 72 243 6.1 15.6 0.00 0.00 0.00 36 1008.7
20260504225014 72 262 7.8 16.5 0.00 0.00 0.00 36 1008.7
20260504224513 72 232 8.7 16.5 0.00 0.00 0.00 35 1008.8
20260504224013 72 209 7.0 16.5 0.00 0.00 0.00 36 1008.8
20260504223513 72 244 7.8 16.5 0.00 0.00 0.00 35 1008.7
20260504223013 72 233 7.0 14.8 0.00 0.00 0.00 36 1008.8
20260504222515 72 233 6.1 16.5 0.00 0.00 0.00 35 1008.8
20260504222016 73 226 6.1 16.5 0.00 0.00 0.00 35 1008.9
20260504221517 73 359 5.2 12.2 0.00 0.00 0.00 36 1008.8
20260504221010 73 235 7.0 12.2 0.00 0.00 0.00 35 1008.8
20260504220510 73 222 5.2 12.2 0.00 0.00 0.00 35 1008.9
20260504220010 73 262 5.2 14.8 0.00 0.00 0.00 35 1008.9
20260504215510 73 199 7.8 14.8 0.00 0.00 0.00 35 1009.0
20260504215014 73 251 7.8 14.8 0.00 0.00 0.00 35 1009.0
20260504214512 73 263 8.7 14.8 0.00 0.00 0.00 35 1009.1
20260504214010 73 359 6.1 17.4 0.00 0.00 0.00 35 1009.1
20260504213508 73 275 7.0 17.4 0.00 0.00 0.00 35 1009.2
20260504213026 73 230 10.4 17.4 0.00 0.00 0.00 35 1009.2
20260504212507 73 262 8.7 17.4 0.00 0.00 0.00 34 1009.2
20260504212007 73 256 5.2 12.2 0.00 0.00 0.00 35 1009.1
20260504211514 74 270 4.3 13.9 0.00 0.00 0.00 35 1009.2
20260504211006 73 208 6.1 12.2 0.00 0.00 0.00 35 1009.2
20260504210508 73 247 5.2 12.2 0.00 0.00 0.00 35 1009.1
20260504210008 73 214 8.7 15.6 0.00 0.00 0.00 34 1009.1
20260504205505 73 226 8.7 15.6 0.00 0.00 0.00 35 1009.1
20260504205006 73 230 7.0 20.9 0.00 0.00 0.00 35 1009.0
20260504204504 73 230 8.7 20.9 0.00 0.00 0.00 34 1009.0
20260504204003 73 205 7.8 14.8 0.00 0.00 0.00 35 1009.1
20260504203508 73 199 6.1 20.9 0.00 0.00 0.00 35 1009.1
20260504203007 73 224 8.7 20.9 0.00 0.00 0.00 35 1009.2
20260504202501 73 248 9.6 18.2 0.00 0.00 0.00 35 1009.3
20260504202003 73 359 8.7 18.2 0.00 0.00 0.00 35 1009.3
20260504201504 73 229 3.5 13.9 0.00 0.00 0.00 35 1009.1
20260504201002 73 263 7.0 13.0 0.00 0.00 0.00 34 1009.3
20260504200600 73 359 7.0 13.0 0.00 0.00 0.00 35 1009.3
20260504200100 73 218 8.7 15.6 0.00 0.00 0.00 36 1009.2
20260504195602 73 201 7.8 15.6 0.00 0.00 0.00 35 1009.3
20260504195059 73 359 4.3 17.4 0.00 0.00 0.00 36 1009.4
20260504194608 73 359 7.8 17.4 0.00 0.00 0.00 36 1009.4
20260504194058 73 233 7.0 14.8 0.00 0.00 0.00 37 1009.4
20260504193558 73 324 7.0 13.0 0.00 0.00 0.00 36 1009.4
20260504193109 72 235 7.8 12.2 0.00 0.00 0.00 37 1009.3
20260504192555 72 316 7.0 18.2 0.00 0.00 0.00 36 1009.4
20260504192055 72 305 9.6 20.0 0.00 0.00 0.00 36 1009.5
20260504191555 72 268 11.3 20.0 0.00 0.00 0.00 35 1009.8
20260504191054 72 210 5.2 13.9 0.00 0.00 0.00 35 1009.6
20260504190557 73 231 8.7 14.8 0.00 0.00 0.00 35 1009.7
20260504190113 73 359 3.5 10.4 0.00 0.00 0.00 36 1009.7
20260504185553 72 318 3.5 16.5 0.00 0.00 0.00 37 1009.7
20260504185051 72 18 7.0 16.5 0.00 0.00 0.00 37 1009.8
20260504184559 72 217 8.7 20.0 0.00 0.00 0.00 36 1009.9
20260504184050 71 185 9.6 20.0 0.00 0.00 0.00 36 1010.3
20260504183552 71 250 9.6 20.0 0.00 0.00 0.00 37 1010.3
20260504183048 71 359 7.8 20.0 0.00 0.00 0.00 36 1010.2
20260504182550 71 359 9.6 20.9 0.00 0.00 0.00 35 1010.4
20260504182046 71 359 9.6 15.6 0.00 0.00 0.00 38 1010.5
20260504181545 71 305 7.0 13.9 0.00 0.00 0.00 36 1010.5
20260504181044 71 230 7.0 13.0 0.00 0.00 0.00 38 1010.7
20260504180546 71 264 7.0 17.4 0.00 0.00 0.00 36 1010.7
20260504180044 71 231 7.0 17.4 0.00 0.00 0.00 36 1010.8
20260504175541 70 359 7.0 18.2 0.00 0.00 0.00 37 1010.9
20260504175043 70 241 8.7 18.2 0.00 0.00 0.00 37 1011.0
20260504174540 70 285 3.5 18.2 0.00 0.00 0.00 38 1011.0
20260504174040 70 211 8.7 20.0 0.00 0.00 0.00 38 1011.1
20260504173539 70 241 10.4 20.0 0.00 0.00 0.00 37 1011.0
20260504173047 70 264 8.7 14.8 0.00 0.00 0.00 38 1010.9
20260504172537 69 266 9.6 15.6 0.00 0.00 0.00 38 1011.1
20260504172037 69 359 9.6 15.6 0.00 0.00 0.00 38 1011.1
20260504171536 69 233 8.7 19.1 0.00 0.00 0.00 38 1011.1
20260504171035 69 279 10.4 19.1 0.00 0.00 0.00 39 1011.2
20260504170534 69 359 8.7 16.5 0.00 0.00 0.00 39 1011.5